createdAt,value
2018-11-26T00:00:36.011Z,31.33
2018-11-26T00:03:07.139Z,33.10
2018-11-26T00:05:35.165Z,31.33
2018-11-26T00:08:03.313Z,27.40
2018-11-26T00:10:42.244Z,32.70
2018-11-26T00:13:10.246Z,30.03
2018-11-26T00:15:38.572Z,26.37
2018-11-26T00:18:06.744Z,30.33
2018-11-26T00:20:34.851Z,33.43
2018-11-26T00:23:03.536Z,31.70
2018-11-26T00:25:31.538Z,31.30
2018-11-26T00:27:59.675Z,33.47
2018-11-26T00:30:27.782Z,30.87
2018-11-26T00:32:56.372Z,34.43
2018-11-26T00:35:24.328Z,33.63
2018-11-26T00:37:52.388Z,31.20
2018-11-26T00:40:20.314Z,29.60
2018-11-26T00:45:25.303Z,30.37
2018-11-26T00:47:53.328Z,32.80
2018-11-26T00:50:21.343Z,28.20
2018-11-26T00:52:49.905Z,25.03
2018-11-26T00:55:18.008Z,31.87
2018-11-26T00:57:46.054Z,26.20
2018-11-26T01:00:14.251Z,29.00
2018-11-26T01:02:43.588Z,31.80
2018-11-26T01:05:22.350Z,29.40
2018-11-26T01:07:50.275Z,31.97
2018-11-26T01:10:18.334Z,36.17
2018-11-26T01:12:46.514Z,34.50
2018-11-26T01:15:14.674Z,24.90
2018-11-26T01:17:42.898Z,31.40
2018-11-26T01:20:10.986Z,25.00
2018-11-26T01:22:38.910Z,24.97
2018-11-26T01:25:06.896Z,25.13
2018-11-26T01:27:35.019Z,22.03
2018-11-26T01:30:03.802Z,24.63
2018-11-26T01:32:31.845Z,25.60
2018-11-26T01:35:01.357Z,23.53
2018-11-26T01:37:30.178Z,19.53
2018-11-26T01:39:58.217Z,24.03
2018-11-26T01:42:26.227Z,26.80
2018-11-26T01:44:54.180Z,24.07
2018-11-26T01:47:22.286Z,23.83
2018-11-26T01:49:50.245Z,22.63
2018-11-26T01:52:18.249Z,23.60
2018-11-26T01:54:46.297Z,23.53
2018-11-26T01:57:14.229Z,26.07
2018-11-26T01:59:42.153Z,25.33
2018-11-26T02:02:10.147Z,24.07
2018-11-26T02:04:39.102Z,24.27
2018-11-26T02:07:07.221Z,25.70
2018-11-26T02:09:35.375Z,21.67
2018-11-26T02:12:04.673Z,24.10
2018-11-26T02:14:32.733Z,20.97
2018-11-26T02:17:02.091Z,20.53
2018-11-26T02:19:30.919Z,23.33
2018-11-26T02:22:00.462Z,23.47
2018-11-26T02:24:28.604Z,27.50
2018-11-26T02:26:56.591Z,23.17
2018-11-26T02:29:24.733Z,23.80
2018-11-26T02:31:53.047Z,24.70
2018-11-26T02:34:21.065Z,23.97
2018-11-26T02:36:49.123Z,23.37
2018-11-26T02:39:17.647Z,24.20
2018-11-26T02:41:45.687Z,24.93
2018-11-26T02:44:13.731Z,24.00
2018-11-26T02:46:41.668Z,22.27
2018-11-26T02:49:09.790Z,23.93
2018-11-26T02:51:38.446Z,17.70
2018-11-26T02:54:06.422Z,25.27
2018-11-26T02:56:34.567Z,23.40
2018-11-26T02:59:02.501Z,18.20
2018-11-26T03:01:30.534Z,18.90
2018-11-26T03:03:58.572Z,17.67
2018-11-26T03:06:27.290Z,18.00
2018-11-26T03:08:55.391Z,17.43
2018-11-26T03:11:23.342Z,15.27
2018-11-26T03:13:51.314Z,16.60
2018-11-26T03:16:19.265Z,15.83
2018-11-26T03:18:47.479Z,14.87
2018-11-26T03:21:16.216Z,18.03
2018-11-26T03:23:44.101Z,19.20
2018-11-26T03:26:12.150Z,19.03
2018-11-26T03:28:40.070Z,23.57
2018-11-26T03:31:08.245Z,23.37
2018-11-26T03:33:36.479Z,18.63
2018-11-26T03:36:04.446Z,18.67
2018-11-26T03:38:49.927Z,19.83
2018-11-26T03:41:18.004Z,21.57
2018-11-26T03:43:46.198Z,21.13
2018-11-26T03:46:14.300Z,22.47
2018-11-26T03:48:42.281Z,19.97
2018-11-26T03:51:10.380Z,20.93
2018-11-26T03:53:38.368Z,23.03
2018-11-26T03:56:06.883Z,21.70
2018-11-26T03:58:34.898Z,20.67
2018-11-26T04:01:02.863Z,22.03
2018-11-26T04:03:30.763Z,25.20
2018-11-26T04:05:58.785Z,22.73
2018-11-26T04:08:26.806Z,22.50
2018-11-26T04:10:55.610Z,25.80
2018-11-26T04:13:23.792Z,25.17
2018-11-26T04:15:52.085Z,20.90
2018-11-26T04:18:21.308Z,20.30
2018-11-26T04:20:50.612Z,19.87
2018-11-26T04:23:18.808Z,19.13
2018-11-26T04:25:47.802Z,20.13
2018-11-26T04:28:16.461Z,18.43
2018-11-26T04:30:47.830Z,22.40
2018-11-26T04:33:16.050Z,22.50
2018-11-26T04:35:44.034Z,22.97
2018-11-26T04:38:12.246Z,24.00
2018-11-26T04:40:40.256Z,18.30
2018-11-26T04:43:08.176Z,18.93
2018-11-26T04:45:36.088Z,20.43
2018-11-26T04:48:04.042Z,21.83
2018-11-26T04:50:31.981Z,18.20
2018-11-26T04:52:59.984Z,21.60
2018-11-26T04:55:27.877Z,21.23
2018-11-26T04:57:55.856Z,20.10
2018-11-26T05:00:23.844Z,17.10
2018-11-26T05:02:51.776Z,16.50
2018-11-26T05:05:19.764Z,19.93
2018-11-26T05:07:47.854Z,18.50
2018-11-26T05:10:15.854Z,20.00
2018-11-26T05:12:43.872Z,23.57
2018-11-26T05:15:12.576Z,21.87
2018-11-26T05:17:40.744Z,20.97
2018-11-26T05:20:14.269Z,24.07
2018-11-26T05:22:43.428Z,19.20
2018-11-26T05:25:11.714Z,20.47
2018-11-26T05:27:39.640Z,19.90
2018-11-26T05:30:12.669Z,18.77
2018-11-26T05:32:40.883Z,20.43
2018-11-26T05:35:10.128Z,19.37
2018-11-26T05:37:38.128Z,19.60
2018-11-26T05:40:11.759Z,20.13
2018-11-26T05:42:42.193Z,20.63
2018-11-26T05:45:12.559Z,22.80
2018-11-26T05:47:41.614Z,20.30
2018-11-26T05:50:10.955Z,20.33
2018-11-26T05:52:40.046Z,23.73
2018-11-26T05:55:09.798Z,21.73
2018-11-26T05:57:39.722Z,17.87
2018-11-26T06:00:21.739Z,19.63
2018-11-26T06:02:50.893Z,21.10
2018-11-26T06:05:19.624Z,20.87
2018-11-26T06:07:48.868Z,22.17
2018-11-26T06:12:53.706Z,22.97
2018-11-26T06:15:21.668Z,17.00
2018-11-26T06:17:49.657Z,17.07
2018-11-26T06:20:17.584Z,17.33
2018-11-26T06:22:46.370Z,13.20
2018-11-26T06:25:15.704Z,20.07
2018-11-26T06:27:44.089Z,22.13
2018-11-26T06:30:17.072Z,20.43
2018-11-26T06:32:47.505Z,22.10
2018-11-26T06:35:24.106Z,20.63
2018-11-26T06:37:54.320Z,21.03
2018-11-26T06:40:26.241Z,20.53
2018-11-26T06:42:56.463Z,18.13
2018-11-26T06:45:24.498Z,23.50
2018-11-26T06:47:53.470Z,23.43
2018-11-26T06:50:22.102Z,21.13
2018-11-26T06:52:50.954Z,20.33
2018-11-26T06:55:20.308Z,23.20
2018-11-26T06:57:48.554Z,20.80
2018-11-26T07:00:18.088Z,21.70
2018-11-26T07:02:46.110Z,25.83
2018-11-26T07:05:16.410Z,21.30
2018-11-26T07:07:48.566Z,21.17
2018-11-26T07:10:18.684Z,23.33
2018-11-26T07:12:46.821Z,20.40
2018-11-26T07:15:17.886Z,20.50
2018-11-26T07:17:45.941Z,17.80
2018-11-26T07:20:15.995Z,21.53
2018-11-26T07:22:44.160Z,24.47
2018-11-26T07:25:14.067Z,24.80
2018-11-26T07:27:45.059Z,21.63
2018-11-26T07:30:20.864Z,21.23
2018-11-26T07:32:48.965Z,20.30
2018-11-26T07:35:17.188Z,30.27
2018-11-26T07:37:45.340Z,26.07
2018-11-26T07:41:04.055Z,34.13
2018-11-26T07:43:33.345Z,30.63
2018-11-26T07:46:01.490Z,25.87
2018-11-26T07:48:32.550Z,27.73
2018-11-26T07:51:00.534Z,21.40
2018-11-26T07:53:29.223Z,25.17
2018-11-26T07:55:57.199Z,18.83
2018-11-26T07:58:25.394Z,20.90
2018-11-26T08:00:54.682Z,18.97
2018-11-26T08:03:22.845Z,17.70
2018-11-26T08:05:52.442Z,19.07
2018-11-26T08:08:22.200Z,16.27
2018-11-26T08:10:50.874Z,19.90
2018-11-26T08:13:18.893Z,18.17
2018-11-26T08:15:47.074Z,17.93
2018-11-26T08:18:15.579Z,21.00
2018-11-26T08:20:43.486Z,18.63
2018-11-26T08:23:11.577Z,18.57
2018-11-26T08:25:39.593Z,15.23
2018-11-26T08:28:07.585Z,17.03
2018-11-26T08:30:35.501Z,18.37
2018-11-26T08:33:05.390Z,20.80
2018-11-26T08:35:33.578Z,15.87
2018-11-26T08:38:13.242Z,18.50
2018-11-26T08:40:42.425Z,19.83
2018-11-26T08:43:15.945Z,20.97
2018-11-26T08:49:14.036Z,18.20
2018-11-26T08:51:42.926Z,20.40
2018-11-26T08:54:10.910Z,20.93
2018-11-26T08:56:38.854Z,21.57
2018-11-26T08:59:07.066Z,22.83
2018-11-26T09:01:39.558Z,21.50
2018-11-26T09:04:09.758Z,22.90
2018-11-26T09:06:39.626Z,25.37
2018-11-26T09:09:10.089Z,19.03
2018-11-26T09:11:38.268Z,19.10
2018-11-26T09:14:06.682Z,18.10
2018-11-26T09:16:36.255Z,10.47
2018-11-26T09:19:04.843Z,18.90
2018-11-26T09:21:33.020Z,25.27
2018-11-26T09:24:01.974Z,19.70
2018-11-26T09:26:30.007Z,19.77
2018-11-26T09:28:58.053Z,25.43
2018-11-26T09:31:26.361Z,18.17
2018-11-26T09:33:58.325Z,18.57
2018-11-26T09:36:26.492Z,24.30
2018-11-26T09:38:54.616Z,31.13
2018-11-26T09:41:22.605Z,23.87
2018-11-26T09:43:50.707Z,21.30
2018-11-26T09:46:19.235Z,24.87
2018-11-26T09:48:47.299Z,25.73
2018-11-26T09:51:15.458Z,25.97
2018-11-26T09:53:43.551Z,16.27
2018-11-26T09:56:11.530Z,29.27
2018-11-26T09:58:39.495Z,17.80
2018-11-26T10:01:07.482Z,31.90
2018-11-26T10:03:35.707Z,24.00
2018-11-26T10:06:04.875Z,17.17
2018-11-26T10:08:33.076Z,18.67
2018-11-26T10:11:04.083Z,19.27
2018-11-26T10:13:32.323Z,15.37
2018-11-26T10:16:00.653Z,16.13
2018-11-26T10:18:28.648Z,17.33
2018-11-26T10:20:56.765Z,20.20
2018-11-26T10:23:24.903Z,14.23
2018-11-26T10:25:53.161Z,13.27
2018-11-26T10:28:21.258Z,14.07
2018-11-26T10:30:49.474Z,14.37
2018-11-26T10:33:17.536Z,12.80
2018-11-26T10:35:46.425Z,11.07
2018-11-26T10:38:16.562Z,15.07
2018-11-26T10:40:45.618Z,12.40
2018-11-26T10:43:13.566Z,16.73
2018-11-26T10:45:44.866Z,14.97
2018-11-26T10:48:16.749Z,13.30
2018-11-26T10:50:46.747Z,14.73
2018-11-26T10:53:15.575Z,13.90
2018-11-26T10:55:44.746Z,16.63
2018-11-26T10:58:14.135Z,13.77
2018-11-26T11:00:47.938Z,13.53
2018-11-26T11:03:17.723Z,17.30
2018-11-26T11:05:45.900Z,12.70
2018-11-26T11:08:17.768Z,13.33
2018-11-26T11:10:46.092Z,13.37
2018-11-26T11:13:14.243Z,13.23
2018-11-26T11:15:55.297Z,12.83
2018-11-26T11:18:28.473Z,13.93
2018-11-26T11:20:57.578Z,15.00
2018-11-26T11:23:25.627Z,12.90
2018-11-26T11:26:05.760Z,14.50
2018-11-26T11:28:34.229Z,11.77
2018-11-26T11:31:02.236Z,14.00
2018-11-26T11:33:30.231Z,11.33
2018-11-26T11:35:58.201Z,12.57
2018-11-26T11:38:26.242Z,15.17
2018-11-26T11:40:54.413Z,16.33
2018-11-26T11:43:22.518Z,13.33
2018-11-26T11:45:50.658Z,15.60
2018-11-26T11:48:18.629Z,12.60
2018-11-26T11:50:46.792Z,12.80
2018-11-26T11:53:15.033Z,13.80
2018-11-26T11:55:43.136Z,14.53
2018-11-26T11:58:11.226Z,15.38
2018-11-26T12:00:40.400Z,14.93
2018-11-26T12:03:11.644Z,15.93
2018-11-26T12:05:39.840Z,11.83
2018-11-26T12:08:08.638Z,16.30
2018-11-26T12:10:36.852Z,13.43
2018-11-26T12:13:05.701Z,12.67
2018-11-26T12:15:34.712Z,12.47
2018-11-26T12:18:02.702Z,12.63
2018-11-26T12:20:30.727Z,14.00
2018-11-26T12:22:59.213Z,12.53
2018-11-26T12:25:27.497Z,13.03
2018-11-26T12:27:57.549Z,12.10
2018-11-26T12:30:26.789Z,13.60
2018-11-26T12:32:54.799Z,15.10
2018-11-26T12:35:23.034Z,14.23
2018-11-26T12:37:51.388Z,13.90
2018-11-26T12:40:27.182Z,18.03
2018-11-26T12:42:56.276Z,16.37
2018-11-26T12:45:27.089Z,15.23
2018-11-26T12:48:01.121Z,17.37
2018-11-26T12:50:30.223Z,16.00
2018-11-26T12:52:58.646Z,15.57
2018-11-26T12:55:26.840Z,25.03
2018-11-26T12:57:55.816Z,29.40
2018-11-26T13:00:27.015Z,16.50
2018-11-26T13:03:12.046Z,15.30
2018-11-26T13:05:40.095Z,21.57
2018-11-26T13:08:08.597Z,30.93
2018-11-26T13:10:37.724Z,34.80
2018-11-26T13:13:06.986Z,14.97
2018-11-26T13:15:35.968Z,25.37
2018-11-26T13:18:04.768Z,19.00
2018-11-26T13:20:33.751Z,15.63
2018-11-26T13:23:01.987Z,15.53
2018-11-26T13:25:33.411Z,13.20
2018-11-26T13:28:03.166Z,15.43
2018-11-26T13:30:32.435Z,16.03
2018-11-26T13:33:01.892Z,16.77
2018-11-26T13:35:31.779Z,16.67
2018-11-26T13:37:59.902Z,17.20
2018-11-26T13:40:28.969Z,22.10
2018-11-26T13:42:56.921Z,20.33
2018-11-26T13:45:27.194Z,20.43
2018-11-26T13:47:55.300Z,20.50
2018-11-26T13:50:28.789Z,21.67
2018-11-26T13:52:57.184Z,23.53
2018-11-26T13:55:26.078Z,25.27
2018-11-26T13:57:55.496Z,28.17
2018-11-26T14:00:23.497Z,24.77
2018-11-26T14:02:51.580Z,24.83
2018-11-26T14:05:22.670Z,30.90
2018-11-26T14:10:38.448Z,30.07
2018-11-26T14:13:46.046Z,28.93
2018-11-26T14:16:14.175Z,29.80
2018-11-26T14:18:43.776Z,27.57
2018-11-26T14:21:14.015Z,37.17
2018-11-26T14:23:42.186Z,37.63
2018-11-26T14:26:10.719Z,45.17
2018-11-26T14:28:38.676Z,48.37
2018-11-26T14:31:06.792Z,35.73
2018-11-26T14:33:34.822Z,35.37
2018-11-26T14:36:03.605Z,35.93
2018-11-26T14:38:50.611Z,35.87
2018-11-26T14:41:22.900Z,37.23
2018-11-26T14:43:50.838Z,38.77
2018-11-26T14:46:18.883Z,36.17
2018-11-26T14:48:47.769Z,35.63
2018-11-26T14:51:17.922Z,42.90
2018-11-26T14:53:46.043Z,32.23
2018-11-26T14:56:14.344Z,44.93
2018-11-26T14:58:42.479Z,43.93
2018-11-26T15:01:10.719Z,40.53
2018-11-26T15:03:40.165Z,32.23
2018-11-26T15:06:08.128Z,28.77
2018-11-26T15:08:36.116Z,29.37
2018-11-26T15:11:04.472Z,24.73
2018-11-26T15:13:32.623Z,39.70
2018-11-26T15:16:02.072Z,31.73
2018-11-26T15:18:30.510Z,31.63
2018-11-26T15:21:00.484Z,35.33
2018-11-26T15:23:30.624Z,34.00
2018-11-26T15:25:58.909Z,27.57
2018-11-26T15:28:30.197Z,40.50
2018-11-26T15:31:05.242Z,37.77
2018-11-26T15:33:33.615Z,35.40
2018-11-26T15:36:02.660Z,35.20
2018-11-26T15:38:31.243Z,32.93
2018-11-26T15:40:59.553Z,33.50
2018-11-26T15:43:27.559Z,29.73
2018-11-26T15:45:55.522Z,37.40
2018-11-26T15:48:23.583Z,37.50
2018-11-26T15:50:51.693Z,51.27
2018-11-26T15:53:20.039Z,48.83
2018-11-26T15:55:48.323Z,62.57
2018-11-26T15:58:23.768Z,25.57
2018-11-26T16:00:51.556Z,21.03
2018-11-26T16:03:19.537Z,32.57
2018-11-26T16:05:47.560Z,42.07
2018-11-26T16:08:16.296Z,22.80
2018-11-26T16:10:44.911Z,49.03
2018-11-26T16:13:14.758Z,30.83
2018-11-26T16:15:43.916Z,31.50
2018-11-26T16:18:18.676Z,33.77
2018-11-26T16:20:47.389Z,37.53
2018-11-26T16:23:15.456Z,39.47
2018-11-26T16:25:44.750Z,36.63
2018-11-26T16:28:17.209Z,28.03
2018-11-26T16:30:45.371Z,30.37
2018-11-26T16:33:13.463Z,36.70
2018-11-26T16:35:42.716Z,28.07
2018-11-26T16:38:11.176Z,26.97
2018-11-26T16:40:39.155Z,16.90
2018-11-26T16:43:08.699Z,21.33
2018-11-26T16:45:36.858Z,20.20
2018-11-26T16:48:05.152Z,21.50
2018-11-26T16:50:34.307Z,18.77
2018-11-26T16:53:02.307Z,22.07
2018-11-26T16:55:30.547Z,20.53
2018-11-26T16:57:58.629Z,33.87
2018-11-26T17:00:28.774Z,22.50
2018-11-26T17:03:00.660Z,23.37
2018-11-26T17:05:33.703Z,29.70
2018-11-26T17:08:01.821Z,20.23
2018-11-26T17:10:29.884Z,21.57
2018-11-26T17:12:58.163Z,23.30
2018-11-26T17:15:26.887Z,29.93
2018-11-26T17:17:56.267Z,21.73
2018-11-26T17:20:24.418Z,24.60
2018-11-26T17:22:52.551Z,27.63
2018-11-26T17:25:20.756Z,24.03
2018-11-26T17:27:49.600Z,21.63
2018-11-26T17:30:25.814Z,25.27
2018-11-26T17:32:54.990Z,25.17
2018-11-26T17:35:22.946Z,11.70
2018-11-26T17:37:51.082Z,19.70
2018-11-26T17:40:20.356Z,19.67
2018-11-26T17:42:48.463Z,25.50
2018-11-26T17:45:17.259Z,26.87
2018-11-26T17:47:47.316Z,30.33
2018-11-26T17:50:19.541Z,38.37
2018-11-26T17:52:47.614Z,44.70
2018-11-26T17:55:15.671Z,40.63
2018-11-26T17:57:43.771Z,45.77
2018-11-26T18:00:15.092Z,48.43
2018-11-26T18:02:44.011Z,54.93
2018-11-26T18:05:15.607Z,57.50
2018-11-26T18:07:45.799Z,58.17
2018-11-26T18:10:14.979Z,60.90
2018-11-26T18:12:44.599Z,64.50
2018-11-26T18:15:14.018Z,63.17
2018-11-26T18:17:42.676Z,68.70
2018-11-26T18:20:13.575Z,86.40
2018-11-26T18:22:43.015Z,104.00
2018-11-26T18:25:11.830Z,112.90
2018-11-26T18:27:44.648Z,103.47
2018-11-26T18:30:15.197Z,22.80
2018-11-26T18:32:43.205Z,16.00
2018-11-26T18:35:11.386Z,11.30
2018-11-26T18:37:39.541Z,8.07
2018-11-26T18:40:12.976Z,5.87
2018-11-26T18:42:40.981Z,5.23
2018-11-26T18:45:11.301Z,14.60
2018-11-26T18:47:39.256Z,96.30
2018-11-26T18:50:11.826Z,191.10
2018-11-26T18:52:46.695Z,247.27
2018-11-26T18:55:24.005Z,178.30
2018-11-26T18:57:52.185Z,125.10
2018-11-26T19:00:27.329Z,91.23
2018-11-26T19:02:56.115Z,76.63
2018-11-26T19:05:24.072Z,66.53
2018-11-26T19:07:52.204Z,57.13
2018-11-26T19:10:22.147Z,49.07
2018-11-26T19:12:52.402Z,45.27
2018-11-26T19:15:23.242Z,48.93
2018-11-26T19:17:52.606Z,46.30
2018-11-26T19:20:24.041Z,41.30
2018-11-26T19:25:30.554Z,34.93
2018-11-26T19:27:59.270Z,35.80
2018-11-26T19:30:27.612Z,37.97
2018-11-26T19:32:55.665Z,35.13
2018-11-26T19:35:23.624Z,31.77
2018-11-26T19:37:51.579Z,36.67
2018-11-26T19:40:20.352Z,33.03
2018-11-26T19:42:48.394Z,33.43
2018-11-26T19:45:17.647Z,28.97
2018-11-26T19:47:45.885Z,15.33
2018-11-26T19:50:14.971Z,14.33
2018-11-26T19:52:43.768Z,28.87
2018-11-26T19:55:21.004Z,26.60
2018-11-26T19:57:49.343Z,28.77
2018-11-26T20:00:21.775Z,22.03
2018-11-26T20:02:52.370Z,20.33
2018-11-26T20:05:34.311Z,11.37
2018-11-26T20:08:02.247Z,11.40
2018-11-26T20:10:30.160Z,9.17
2018-11-26T20:12:58.116Z,8.73
2018-11-26T20:15:26.096Z,12.00
2018-11-26T20:17:58.915Z,15.93
2018-11-26T20:20:22.237Z,12.23
2018-11-26T20:22:50.143Z,17.17
2018-11-26T20:25:18.122Z,16.17
2018-11-26T20:27:46.752Z,14.47
2018-11-26T20:30:15.412Z,13.23
2018-11-26T20:32:44.991Z,10.20
2018-11-26T20:35:13.631Z,16.23
2018-11-26T20:37:42.480Z,15.37
2018-11-26T20:40:13.926Z,12.57
2018-11-26T20:42:46.571Z,14.13
2018-11-26T20:45:15.343Z,14.20
2018-11-26T20:47:43.538Z,12.23
2018-11-26T20:50:15.553Z,9.60
2018-11-26T20:52:43.501Z,11.43
2018-11-26T20:55:13.986Z,12.87
2018-11-26T20:57:42.203Z,13.23
2018-11-26T21:00:16.833Z,15.23
2018-11-26T21:02:45.569Z,13.40
2018-11-26T21:05:14.444Z,13.13
2018-11-26T21:07:42.416Z,10.20
2018-11-26T21:10:12.459Z,11.37
2018-11-26T21:12:41.375Z,12.20
2018-11-26T21:15:11.135Z,12.40
2018-11-26T21:17:39.124Z,10.47
2018-11-26T21:20:11.209Z,11.90
2018-11-26T21:22:40.219Z,14.00
2018-11-26T21:25:10.505Z,14.90
2018-11-26T21:27:39.537Z,11.00
2018-11-26T21:30:12.208Z,14.27
2018-11-26T21:32:40.308Z,10.03
2018-11-26T21:35:10.517Z,9.00
2018-11-26T21:37:38.979Z,10.13
2018-11-26T21:40:09.152Z,8.53
2018-11-26T21:42:37.100Z,8.50
2018-11-26T21:45:10.926Z,10.07
2018-11-26T21:47:38.832Z,9.83
2018-11-26T21:50:10.033Z,9.80
2018-11-26T21:52:38.552Z,10.23
2018-11-26T21:55:09.956Z,9.53
2018-11-26T21:57:38.380Z,10.03
2018-11-26T22:00:28.852Z,8.90
2018-11-26T22:02:57.220Z,10.63
2018-11-26T22:05:25.203Z,10.27
2018-11-26T22:07:53.216Z,9.07
2018-11-26T22:10:23.219Z,9.23
2018-11-26T22:12:53.189Z,9.73
2018-11-26T22:15:21.136Z,9.27
2018-11-26T22:17:49.229Z,10.33
2018-11-26T22:20:27.089Z,9.37
2018-11-26T22:22:55.297Z,10.37
2018-11-26T22:25:23.324Z,10.63
2018-11-26T22:27:52.139Z,12.07
2018-11-26T22:30:29.432Z,10.20
2018-11-26T22:32:57.475Z,11.27
2018-11-26T22:35:25.386Z,12.47
2018-11-26T22:37:53.375Z,11.00
2018-11-26T22:40:23.404Z,12.03
2018-11-26T22:42:51.518Z,13.20
2018-11-26T22:45:24.276Z,14.13
2018-11-26T22:47:59.264Z,30.10
2018-11-26T22:50:27.175Z,48.90
2018-11-26T22:52:55.063Z,57.63
2018-11-26T22:55:23.124Z,91.60
2018-11-26T22:57:51.003Z,84.17
2018-11-26T23:00:26.213Z,77.33
2018-11-26T23:02:55.364Z,60.43
2018-11-26T23:05:23.387Z,48.73
2018-11-26T23:07:51.248Z,24.03
2018-11-26T23:10:19.282Z,17.37
2018-11-26T23:12:47.431Z,10.50
2018-11-26T23:15:15.866Z,6.37
2018-11-26T23:17:44.331Z,3.73
2018-11-26T23:20:14.271Z,1.73
2018-11-26T23:22:42.164Z,2.67
2018-11-26T23:25:14.683Z,0.90
2018-11-26T23:27:42.761Z,0.70
2018-11-26T23:30:16.734Z,2.13
2018-11-26T23:32:45.836Z,1.70
2018-11-26T23:35:14.661Z,1.47
2018-11-26T23:37:42.685Z,1.30
2018-11-26T23:40:11.731Z,1.40
2018-11-26T23:42:39.750Z,1.40
2018-11-26T23:45:10.915Z,2.73
2018-11-26T23:47:38.965Z,1.20
2018-11-26T23:50:08.507Z,2.03
2018-11-26T23:52:37.000Z,1.73
2018-11-26T23:55:06.039Z,1.67
2018-11-26T23:57:33.998Z,1.37
